Welcome to Northern Hawkes Bay. New Zealand.
PWS Header
      nz Flag



Hit Counter


W3C Valid W3C Valid logo


    Wairoa

Select any of the Stations below to visit their websites.










Historic Data from Weather Underground
Select the location of interest below. Wairoa is the default. Please have patience, this Data is slow to load in.
Northern Hawkes Bay Historical Data
 
Daily Summary for October 16, 2018 Units:  Metric    English   Both
« Previous Day
Next Day »
Daily Weekly Monthly Yearly Custom
  Current: High: Low: Average:
Temperature: 14.6 °C 17.4 °C 6.9 °C 11.8 °C
Dew Point: 11.2 °C 11.4 °C 6.6 °C 8.7 °C
Humidity: 80% 99% 60% 83%
Wind Speed: 5.0km/h 13.4km/h 1.1km/h 6.6km/h
Wind Gust: 9.7km/h 21.9km/h - -
WindSouth - - WSW
Pressure: 1023.3 hPa 1031.7 hPa 1023.2 hPa -
Precipitation: 0.0 mm      
Historical Graphs
 
 
Tabular Data for October 16, 2018
Time Temperature Dew Point Pressure Wind Wind Speed Wind Gust Humidity Rainfall Rate (Hourly) solar
00:04 9.5 °C 8.6 °C 1031.7 hPa NNW 5.0 km/h 9.7 km/h 94% 0.0 mm 0.00 W/m2
00:09 9.5 °C 8.6 °C 1031.5 hPa NW 5.0 km/h 9.7 km/h 94% 0.0 mm 0.00 W/m2
00:14 9.6 °C 8.7 °C 1031.4 hPa NW 6.1 km/h 8.7 km/h 94% 0.0 mm 0.00 W/m2
00:19 9.5 °C 8.6 °C 1031.5 hPa NNW 5.0 km/h 8.7 km/h 94% 0.0 mm 0.00 W/m2
00:24 9.5 °C 8.6 °C 1031.4 hPa NNW 3.5 km/h 8.7 km/h 94% 0.0 mm 0.00 W/m2
00:29 9.4 °C 8.5 °C 1031.4 hPa NNW 3.5 km/h 7.2 km/h 94% 0.0 mm 0.00 W/m2
00:34 9.3 °C 8.4 °C 1031.4 hPa NW 5.0 km/h 7.2 km/h 94% 0.0 mm 0.00 W/m2
00:39 9.3 °C 8.4 °C 1031.4 hPa NW 5.0 km/h 8.7 km/h 94% 0.0 mm 0.00 W/m2
00:44 9.3 °C 8.4 °C 1031.4 hPa NNW 3.5 km/h 8.7 km/h 94% 0.0 mm 0.00 W/m2
00:49 9.3 °C 8.4 °C 1031.4 hPa NW 3.5 km/h 7.2 km/h 94% 0.0 mm 0.00 W/m2
00:54 9.3 °C 8.6 °C 1031.3 hPa NNW 5.0 km/h 7.2 km/h 95% 0.0 mm 0.00 W/m2
00:59 9.3 °C 8.6 °C 1031.2 hPa NNW 2.6 km/h 7.2 km/h 95% 0.0 mm 0.00 W/m2
01:04 9.3 °C 8.6 °C 1031.1 hPa North 5.0 km/h 7.2 km/h 95% 0.0 mm 0.00 W/m2
01:09 9.2 °C 8.4 °C 1031.1 hPa North 3.5 km/h 9.7 km/h 95% 0.0 mm 0.00 W/m2
01:14 9.2 °C 8.4 °C 1031.3 hPa North 5.0 km/h 9.7 km/h 95% 0.0 mm 0.00 W/m2
01:19 9.1 °C 8.3 °C 1031.0 hPa North 5.0 km/h 7.2 km/h 95% 0.0 mm 0.00 W/m2
01:24 9.0 °C 8.2 °C 1031.0 hPa NNW 6.1 km/h 8.7 km/h 95% 0.0 mm 0.00 W/m2
01:29 8.8 °C 8.1 °C 1031.1 hPa NW 5.0 km/h 8.7 km/h 95% 0.0 mm 0.00 W/m2
01:34 8.7 °C 7.9 °C 1030.9 hPa NW 2.6 km/h 7.2 km/h 95% 0.0 mm 0.00 W/m2
01:39 8.6 °C 7.8 °C 1031.0 hPa NNW 2.6 km/h 7.2 km/h 95% 0.0 mm 0.00 W/m2
01:44 8.4 °C 7.8 °C 1031.0 hPa NW 3.5 km/h 6.1 km/h 96% 0.0 mm 0.00 W/m2
01:49 8.3 °C 7.7 °C 1030.9 hPa NW 3.5 km/h 6.1 km/h 96% 0.0 mm 0.00 W/m2
01:54 8.2 °C 7.6 °C 1031.0 hPa NW 3.5 km/h 7.2 km/h 96% 0.0 mm 0.00 W/m2
01:59 8.0 °C 7.6 °C 1030.9 hPa NW 3.5 km/h 7.2 km/h 97% 0.0 mm 0.00 W/m2
02:04 8.0 °C 7.6 °C 1030.7 hPa NW 3.5 km/h 7.2 km/h 97% 0.0 mm 0.00 W/m2
02:09 8.0 °C 7.6 °C 1030.8 hPa NW 5.0 km/h 7.2 km/h 97% 0.0 mm 0.00 W/m2
02:14 8.0 °C 7.7 °C 1030.8 hPa NNW 5.0 km/h 8.7 km/h 98% 0.0 mm 0.00 W/m2
02:19 8.0 °C 7.7 °C 1030.9 hPa NNW 8.7 km/h 11.1 km/h 98% 0.0 mm 0.00 W/m2
02:24 8.1 °C 7.8 °C 1030.8 hPa NNW 5.0 km/h 11.1 km/h 98% 0.0 mm 0.00 W/m2
02:29 8.1 °C 7.9 °C 1030.9 hPa North 5.0 km/h 11.1 km/h 99% 0.0 mm 0.00 W/m2
02:34 8.1 °C 7.9 °C 1030.6 hPa North 3.5 km/h 8.7 km/h 99% 0.0 mm 0.00 W/m2
02:39 8.1 °C 7.9 °C 1030.9 hPa NNW 5.0 km/h 8.7 km/h 99% 0.0 mm 0.00 W/m2
02:44 8.1 °C 7.9 °C 1030.8 hPa NNW 5.0 km/h 9.7 km/h 99% 0.0 mm 0.00 W/m2
02:49 8.1 °C 7.9 °C 1030.6 hPa NNW 7.2 km/h 9.7 km/h 99% 0.0 mm 0.00 W/m2
02:54 8.0 °C 7.8 °C 1030.6 hPa NNW 3.5 km/h 11.1 km/h 99% 0.0 mm 0.00 W/m2
02:59 8.0 °C 7.8 °C 1030.6 hPa NNW 6.1 km/h 11.1 km/h 99% 0.0 mm 0.00 W/m2
03:04 7.9 °C 7.4 °C 1030.6 hPa NW 8.7 km/h 11.1 km/h 97% 0.0 mm 0.00 W/m2
03:09 7.7 °C 7.3 °C 1030.5 hPa NW 8.7 km/h 12.2 km/h 97% 0.0 mm 0.00 W/m2
03:14 7.6 °C 7.2 °C 1030.6 hPa NNW 8.7 km/h 12.2 km/h 97% 0.0 mm 0.00 W/m2
03:19 7.5 °C 7.1 °C 1030.4 hPa NNW 8.7 km/h 13.4 km/h 97% 0.0 mm 0.00 W/m2
03:24 7.4 °C 6.9 °C 1030.5 hPa NNW 6.1 km/h 13.4 km/h 97% 0.0 mm 0.00 W/m2
03:29 7.4 °C 6.9 °C 1030.5 hPa NNW 7.2 km/h 12.2 km/h 97% 0.0 mm 0.00 W/m2
03:34 7.4 °C 6.9 °C 1030.6 hPa NW 7.2 km/h 12.2 km/h 97% 0.0 mm 0.00 W/m2
03:39 7.4 °C 6.9 °C 1030.5 hPa NW 6.1 km/h 12.2 km/h 97% 0.0 mm 0.00 W/m2
03:44 7.5 °C 7.1 °C 1030.4 hPa NNW 6.1 km/h 12.2 km/h 97% 0.0 mm 0.00 W/m2
03:49 7.5 °C 7.1 °C 1030.2 hPa NNW 3.5 km/h 11.1 km/h 97% 0.0 mm 0.00 W/m2
03:54 7.5 °C 7.1 °C 1030.3 hPa NNW 5.0 km/h 8.7 km/h 97% 0.0 mm 0.00 W/m2
03:59 7.4 °C 6.9 °C 1030.1 hPa North 5.0 km/h 8.7 km/h 97% 0.0 mm 0.00 W/m2
04:04 7.4 °C 6.9 °C 1030.5 hPa North 7.2 km/h 11.1 km/h 97% 0.0 mm 0.00 W/m2
04:09 7.4 °C 6.9 °C 1030.3 hPa NNW 8.7 km/h 12.2 km/h 97% 0.0 mm 0.00 W/m2
04:14 7.4 °C 6.9 °C 1030.2 hPa North 7.2 km/h 12.2 km/h 97% 0.0 mm 0.00 W/m2
04:19 7.3 °C 6.8 °C 1030.3 hPa NNW 7.2 km/h 13.4 km/h 97% 0.0 mm 0.00 W/m2
04:24 7.3 °C 6.8 °C 1030.3 hPa NNW 6.1 km/h 13.4 km/h 97% 0.0 mm 0.00 W/m2
04:29 7.3 °C 6.8 °C 1030.1 hPa North 7.2 km/h 13.4 km/h 97% 0.0 mm 0.00 W/m2
04:34 7.3 °C 6.8 °C 1030.1 hPa North 6.1 km/h 11.1 km/h 97% 0.0 mm 0.00 W/m2
04:39 7.3 °C 6.8 °C 1030.1 hPa NNW 7.2 km/h 12.2 km/h 97% 0.0 mm 0.00 W/m2
04:44 7.2 °C 6.8 °C 1030.2 hPa North 5.0 km/h 12.2 km/h 97% 0.0 mm 0.00 W/m2
04:49 7.2 °C 6.8 °C 1030.1 hPa NNW 5.0 km/h 12.2 km/h 97% 0.0 mm 0.00 W/m2
04:54 7.1 °C 6.7 °C 1030.0 hPa NNW 3.5 km/h 8.7 km/h 97% 0.0 mm 0.00 W/m2
04:59 7.1 °C 6.7 °C 1029.7 hPa North 5.0 km/h 8.7 km/h 97% 0.0 mm 0.00 W/m2
05:04 7.0 °C 6.6 °C 1029.6 hPa North 5.0 km/h 8.7 km/h 97% 0.0 mm 0.00 W/m2
05:09 7.0 °C 6.6 °C 1029.8 hPa NNW 6.1 km/h 8.7 km/h 97% 0.0 mm 0.00 W/m2
05:14 7.0 °C 6.6 °C 1029.7 hPa NNW 7.2 km/h 9.7 km/h 97% 0.0 mm 0.00 W/m2
05:19 7.1 °C 6.7 °C 1029.8 hPa North 6.1 km/h 11.1 km/h 97% 0.0 mm 0.00 W/m2
05:24 7.1 °C 6.7 °C 1029.5 hPa NNW 6.1 km/h 11.1 km/h 97% 0.0 mm 0.00 W/m2
05:29 7.1 °C 6.7 °C 1029.6 hPa NNW 5.0 km/h 11.1 km/h 97% 0.0 mm 0.00 W/m2
05:49 7.1 °C 6.7 °C 1029.6 hPa NNW 5.0 km/h 9.7 km/h 97% 0.0 mm 0.00 W/m2
05:54 7.1 °C 6.7 °C 1029.3 hPa North 5.0 km/h 8.7 km/h 97% 0.0 mm 0.00 W/m2
05:59 7.0 °C 6.6 °C 1029.4 hPa NNW 3.5 km/h 8.7 km/h 97% 0.0 mm 0.00 W/m2
06:04 6.9 °C 6.6 °C 1029.4 hPa NNW 5.0 km/h 8.7 km/h 98% 0.0 mm 0.00 W/m2
06:09 6.9 °C 6.6 °C 1029.4 hPa NNW 6.1 km/h 9.7 km/h 98% 0.0 mm 0.00 W/m2
06:14 7.0 °C 6.6 °C 1029.3 hPa North 3.5 km/h 9.7 km/h 97% 0.0 mm 0.00 W/m2
06:19 7.0 °C 6.6 °C 1029.4 hPa NNW 6.1 km/h 11.1 km/h 97% 0.0 mm 0.00 W/m2
06:24 7.1 °C 6.7 °C 1029.4 hPa NNW 6.1 km/h 12.2 km/h 97% 0.0 mm 0.00 W/m2
06:29 7.1 °C 6.7 °C 1029.3 hPa NNW 5.0 km/h 12.2 km/h 97% 0.0 mm 0.00 W/m2
06:34 7.1 °C 6.7 °C 1029.4 hPa NNW 7.2 km/h 12.2 km/h 97% 0.0 mm 1.00 W/m2
06:39 7.1 °C 6.7 °C 1029.3 hPa NNW 5.0 km/h 9.7 km/h 97% 0.0 mm 3.00 W/m2
06:44 7.2 °C 6.8 °C 1029.4 hPa NNW 8.7 km/h 13.4 km/h 97% 0.0 mm 4.00 W/m2
06:49 7.2 °C 6.8 °C 1029.4 hPa North 8.7 km/h 14.8 km/h 97% 0.0 mm 6.00 W/m2
06:54 7.2 °C 6.8 °C 1029.5 hPa NNW 9.7 km/h 15.8 km/h 97% 0.0 mm 9.00 W/m2
06:59 7.3 °C 6.8 °C 1029.5 hPa NNW 7.2 km/h 15.8 km/h 97% 0.0 mm 13.00 W/m2
07:04 7.3 °C 6.8 °C 1029.4 hPa NNW 6.1 km/h 13.4 km/h 97% 0.0 mm 19.00 W/m2
07:09 7.4 °C 6.9 °C 1029.5 hPa NNW 7.2 km/h 12.2 km/h 97% 0.0 mm 23.00 W/m2
07:14 7.5 °C 7.1 °C 1029.5 hPa NNW 5.0 km/h 12.2 km/h 97% 0.0 mm 28.00 W/m2
07:19 7.6 °C 7.2 °C 1029.3 hPa NNW 7.2 km/h 12.2 km/h 97% 0.0 mm 33.00 W/m2
07:24 7.6 °C 7.2 °C 1029.3 hPa NNW 6.1 km/h 12.2 km/h 97% 0.0 mm 34.00 W/m2
07:29 7.7 °C 7.3 °C 1029.5 hPa NNW 5.0 km/h 12.2 km/h 97% 0.0 mm 35.00 W/m2
07:34 7.8 °C 7.3 °C 1029.5 hPa North 5.0 km/h 11.1 km/h 97% 0.0 mm 40.00 W/m2
07:39 7.8 °C 7.3 °C 1029.5 hPa NNW 8.7 km/h 12.2 km/h 97% 0.0 mm 42.00 W/m2
07:44 7.9 °C 7.4 °C 1029.4 hPa NNW 5.0 km/h 12.2 km/h 97% 0.0 mm 42.00 W/m2
07:49 7.9 °C 7.4 °C 1029.4 hPa NNW 8.7 km/h 13.4 km/h 97% 0.0 mm 42.00 W/m2
07:54 8.0 °C 7.7 °C 1029.3 hPa NNW 6.1 km/h 13.4 km/h 98% 0.0 mm 48.00 W/m2
07:59 8.1 °C 7.8 °C 1029.4 hPa NNW 7.2 km/h 14.8 km/h 98% 0.0 mm 57.00 W/m2
08:02 8.2 °C 7.9 °C 1029.4 hPa North 7.2 km/h 14.8 km/h 98% 0.0 mm 60.00 W/m2
08:04 8.2 °C 7.8 °C 1029.5 hPa North 9.7 km/h 14.8 km/h 97% 0.0 mm 58.00 W/m2
08:11 8.3 °C 7.8 °C 1029.5 hPa NW 8.7 km/h 13.4 km/h 97% 0.0 mm 60.00 W/m2
08:19 8.6 °C 8.0 °C 1029.5 hPa NNW 6.1 km/h 11.1 km/h 96% 0.0 mm 89.00 W/m2
08:24 8.7 °C 8.1 °C 1029.3 hPa NNW 9.7 km/h 13.4 km/h 96% 0.0 mm 109.00 W/m2
08:29 9.0 °C 8.2 °C 1029.3 hPa NNW 5.0 km/h 13.4 km/h 95% 0.0 mm 116.00 W/m2
08:34 9.4 °C 8.5 °C 1029.4 hPa NNW 6.1 km/h 13.4 km/h 94% 0.0 mm 116.00 W/m2
08:39 9.6 °C 8.7 °C 1029.3 hPa NNW 6.1 km/h 11.1 km/h 94% 0.0 mm 111.00 W/m2
08:44 9.9 °C 8.8 °C 1029.4 hPa NNW 7.2 km/h 11.1 km/h 93% 0.0 mm 105.00 W/m2
08:49 10.0 °C 8.4 °C 1029.4 hPa North 7.2 km/h 11.1 km/h 90% 0.0 mm 115.00 W/m2
08:54 9.9 °C 8.3 °C 1029.4 hPa NNW 8.7 km/h 11.1 km/h 90% 0.0 mm 135.00 W/m2
08:59 10.1 °C 8.4 °C 1029.5 hPa NNW 6.1 km/h 11.1 km/h 89% 0.0 mm 144.00 W/m2
09:04 10.4 °C 8.7 °C 1029.5 hPa NNW 5.0 km/h 11.1 km/h 89% 0.0 mm 152.00 W/m2
09:09 10.6 °C 8.7 °C 1029.5 hPa NNW 5.0 km/h 9.7 km/h 88% 0.0 mm 156.00 W/m2
09:14 10.7 °C 8.6 °C 1029.6 hPa NNW 5.0 km/h 9.7 km/h 87% 0.0 mm 155.00 W/m2
09:19 10.9 °C 8.7 °C 1029.7 hPa NNW 5.0 km/h 8.7 km/h 86% 0.0 mm 160.00 W/m2
09:24 11.2 °C 8.8 °C 1029.6 hPa NNW 5.0 km/h 8.7 km/h 85% 0.0 mm 161.00 W/m2
09:29 11.4 °C 8.9 °C 1029.6 hPa NNW 3.5 km/h 8.7 km/h 85% 0.0 mm 178.00 W/m2
09:34 11.6 °C 9.0 °C 1029.6 hPa NNW 5.0 km/h 7.2 km/h 84% 0.0 mm 186.00 W/m2
09:39 11.8 °C 9.0 °C 1029.6 hPa NNW 3.5 km/h 7.2 km/h 83% 0.0 mm 199.00 W/m2
09:44 12.1 °C 9.1 °C 1029.7 hPa NNW 2.6 km/h 7.2 km/h 82% 0.0 mm 212.00 W/m2
09:49 12.4 °C 9.2 °C 1029.6 hPa NNW 2.6 km/h 6.1 km/h 81% 0.0 mm 221.00 W/m2
09:54 13.0 °C 9.6 °C 1029.6 hPa NNW 1.1 km/h 6.1 km/h 80% 0.0 mm 236.00 W/m2
09:59 13.6 °C 10.2 °C 1029.6 hPa NW 2.6 km/h 3.5 km/h 80% 0.0 mm 293.00 W/m2
10:04 14.2 °C 10.2 °C 1029.7 hPa West 1.1 km/h 5.0 km/h 77% 0.0 mm 347.00 W/m2
10:09 14.4 °C 9.8 °C 1029.6 hPa WSW 2.6 km/h 7.2 km/h 74% 0.0 mm 360.00 W/m2
10:14 15.2 °C 10.4 °C 1029.4 hPa WSW 3.5 km/h 7.2 km/h 73% 0.0 mm 296.00 W/m2
10:19 15.2 °C 9.8 °C 1029.4 hPa WSW 5.0 km/h 9.7 km/h 70% 0.0 mm 320.00 W/m2
10:24 15.1 °C 9.9 °C 1029.4 hPa SSW 6.1 km/h 9.7 km/h 71% 0.0 mm 283.00 W/m2
10:29 14.4 °C 9.4 °C 1029.4 hPa South 5.0 km/h 9.7 km/h 72% 0.0 mm 292.00 W/m2
10:34 14.3 °C 9.6 °C 1029.2 hPa SSW 5.0 km/h 11.1 km/h 73% 0.0 mm 328.00 W/m2
10:39 14.3 °C 9.6 °C 1029.2 hPa SW 3.5 km/h 11.1 km/h 73% 0.0 mm 263.00 W/m2
10:42 14.3 °C 9.7 °C 1029.2 hPa SSW 7.2 km/h 9.7 km/h 74% 0.0 mm 311.00 W/m2
10:49 14.8 °C 10.0 °C 1029.3 hPa SW 7.2 km/h 12.2 km/h 73% 0.0 mm 339.00 W/m2
10:54 14.7 °C 9.7 °C 1029.1 hPa SW 6.1 km/h 12.2 km/h 72% 0.0 mm 348.00 W/m2
10:59 14.5 °C 9.9 °C 1029.0 hPa SW 6.1 km/h 13.4 km/h 74% 0.0 mm 383.00 W/m2
11:04 14.3 °C 9.7 °C 1029.1 hPa SW 8.7 km/h 13.4 km/h 74% 0.0 mm 383.00 W/m2
11:09 14.7 °C 10.1 °C 1029.0 hPa SW 5.0 km/h 12.2 km/h 74% 0.0 mm 361.00 W/m2
11:14 15.0 °C 9.8 °C 1028.8 hPa SW 7.2 km/h 9.7 km/h 71% 0.0 mm 405.00 W/m2
11:19 14.8 °C 9.8 °C 1028.7 hPa SW 5.0 km/h 9.7 km/h 72% 0.0 mm 442.00 W/m2
11:24 15.1 °C 10.1 °C 1028.8 hPa SW 3.5 km/h 11.1 km/h 72% 0.0 mm 399.00 W/m2
11:29 15.4 °C 10.4 °C 1028.8 hPa SW 5.0 km/h 11.1 km/h 72% 0.0 mm 365.00 W/m2
11:34 15.5 °C 10.5 °C 1028.6 hPa SW 6.1 km/h 11.1 km/h 72% 0.0 mm 387.00 W/m2
11:39 15.4 °C 10.6 °C 1028.6 hPa SSW 6.1 km/h 9.7 km/h 73% 0.0 mm 390.00 W/m2
11:44 15.5 °C 10.5 °C 1028.4 hPa South 7.2 km/h 11.1 km/h 72% 0.0 mm 414.00 W/m2
11:49 15.4 °C 10.6 °C 1028.4 hPa SSW 8.7 km/h 12.2 km/h 73% 0.0 mm 530.00 W/m2
11:54 15.1 °C 10.5 °C 1028.3 hPa SW 8.7 km/h 12.2 km/h 74% 0.0 mm 760.00 W/m2
11:59 15.0 °C 10.4 °C 1028.4 hPa SW 6.1 km/h 14.8 km/h 74% 0.0 mm 659.00 W/m2
12:04 15.4 °C 11.0 °C 1028.2 hPa SSW 6.1 km/h 14.8 km/h 75% 0.0 mm 685.00 W/m2
12:09 15.5 °C 10.7 °C 1028.1 hPa South 5.0 km/h 12.2 km/h 73% 0.0 mm 687.00 W/m2
12:14 15.3 °C 10.5 °C 1028.3 hPa SSE 8.7 km/h 12.2 km/h 73% 0.0 mm 694.00 W/m2
12:19 15.1 °C 10.7 °C 1028.1 hPa South 7.2 km/h 15.8 km/h 75% 0.0 mm 694.00 W/m2
12:24 15.1 °C 10.5 °C 1028.0 hPa South 8.7 km/h 15.8 km/h 74% 0.0 mm 708.00 W/m2
12:29 15.2 °C 10.6 °C 1027.9 hPa South 8.7 km/h 13.4 km/h 74% 0.0 mm 702.00 W/m2
12:34 15.1 °C 10.5 °C 1027.9 hPa South 7.2 km/h 15.8 km/h 74% 0.0 mm 716.00 W/m2
12:39 15.1 °C 10.5 °C 1027.7 hPa South 9.7 km/h 15.8 km/h 74% 0.0 mm 600.00 W/m2
12:44 15.1 °C 10.7 °C 1027.7 hPa SSE 7.2 km/h 14.8 km/h 75% 0.0 mm 714.00 W/m2
12:49 15.3 °C 10.9 °C 1027.6 hPa SE 7.2 km/h 14.8 km/h 75% 0.0 mm 716.00 W/m2
12:54 15.2 °C 10.6 °C 1027.5 hPa SSE 12.2 km/h 15.8 km/h 74% 0.0 mm 720.00 W/m2
12:59 15.0 °C 10.2 °C 1027.4 hPa SSE 3.5 km/h 15.8 km/h 73% 0.0 mm 719.00 W/m2
13:04 15.4 °C 10.6 °C 1027.5 hPa SE 7.2 km/h 15.8 km/h 73% 0.0 mm 720.00 W/m2
13:09 15.3 °C 10.1 °C 1027.5 hPa South 9.7 km/h 14.8 km/h 71% 0.0 mm 713.00 W/m2
13:14 15.2 °C 10.0 °C 1027.3 hPa South 7.2 km/h 15.8 km/h 71% 0.0 mm 708.00 W/m2
13:19 15.2 °C 9.8 °C 1027.3 hPa South 6.1 km/h 15.8 km/h 70% 0.0 mm 706.00 W/m2
13:24 15.6 °C 10.2 °C 1027.3 hPa South 8.7 km/h 13.4 km/h 70% 0.0 mm 702.00 W/m2
13:29 15.8 °C 10.6 °C 1027.2 hPa South 7.2 km/h 13.4 km/h 71% 0.0 mm 700.00 W/m2
13:34 15.7 °C 10.7 °C 1027.1 hPa SSE 9.7 km/h 17.2 km/h 72% 0.0 mm 693.00 W/m2
13:39 15.6 °C 10.2 °C 1027.0 hPa SSE 12.2 km/h 17.2 km/h 70% 0.0 mm 688.00 W/m2
13:44 15.4 °C 10.2 °C 1027.0 hPa SE 9.7 km/h 15.8 km/h 71% 0.0 mm 676.00 W/m2
13:49 15.4 °C 10.4 °C 1026.7 hPa SSE 9.7 km/h 15.8 km/h 72% 0.0 mm 667.00 W/m2
13:54 15.5 °C 10.5 °C 1026.8 hPa SSE 7.2 km/h 15.8 km/h 72% 0.0 mm 660.00 W/m2
13:59 15.7 °C 10.1 °C 1026.7 hPa SSE 9.7 km/h 15.8 km/h 69% 0.0 mm 605.00 W/m2
14:04 15.7 °C 9.8 °C 1026.5 hPa SE 5.0 km/h 14.8 km/h 68% 0.0 mm 646.00 W/m2
14:09 15.8 °C 9.7 °C 1026.7 hPa ESE 9.7 km/h 14.8 km/h 67% 0.0 mm 529.00 W/m2
14:14 15.5 °C 8.9 °C 1026.3 hPa SE 12.2 km/h 17.2 km/h 65% 0.0 mm 501.00 W/m2
14:19 15.7 °C 9.8 °C 1026.3 hPa SE 7.2 km/h 17.2 km/h 68% 0.0 mm 379.00 W/m2
14:24 15.7 °C 9.8 °C 1026.3 hPa SE 13.4 km/h 17.2 km/h 68% 0.0 mm 469.00 W/m2
14:29 15.7 °C 9.8 °C 1026.2 hPa SE 13.4 km/h 21.9 km/h 68% 0.0 mm 534.00 W/m2
14:34 15.6 °C 9.5 °C 1026.2 hPa SSE 11.1 km/h 21.9 km/h 67% 0.0 mm 336.00 W/m2
14:39 15.7 °C 10.3 °C 1025.9 hPa SE 11.1 km/h 21.9 km/h 70% 0.0 mm 482.00 W/m2
14:44 15.9 °C 10.2 °C 1026.0 hPa SE 9.7 km/h 19.5 km/h 69% 0.0 mm 403.00 W/m2
14:49 15.8 °C 9.9 °C 1025.9 hPa SE 11.1 km/h 19.5 km/h 68% 0.0 mm 393.00 W/m2
14:54 15.9 °C 9.3 °C 1025.8 hPa ESE 9.7 km/h 18.3 km/h 65% 0.0 mm 474.00 W/m2
14:59 16.2 °C 9.2 °C 1025.6 hPa SE 8.7 km/h 17.2 km/h 63% 0.0 mm 341.00 W/m2
15:04 16.3 °C 9.3 °C 1025.5 hPa SE 9.7 km/h 18.3 km/h 63% 0.0 mm 417.00 W/m2
15:09 16.2 °C 8.9 °C 1025.4 hPa SE 9.7 km/h 18.3 km/h 62% 0.0 mm 426.00 W/m2
15:14 16.3 °C 9.3 °C 1025.4 hPa SSE 11.1 km/h 19.5 km/h 63% 0.0 mm 487.00 W/m2
15:19 16.4 °C 9.3 °C 1025.3 hPa SE 8.7 km/h 19.5 km/h 63% 0.0 mm 482.00 W/m2
15:24 16.4 °C 9.1 °C 1025.2 hPa SE 12.2 km/h 19.5 km/h 62% 0.0 mm 471.00 W/m2
15:29 16.3 °C 9.3 °C 1025.1 hPa SE 9.7 km/h 20.9 km/h 63% 0.0 mm 440.00 W/m2
15:34 16.2 °C 9.2 °C 1025.1 hPa SE 11.1 km/h 20.9 km/h 63% 0.0 mm 427.00 W/m2
15:39 16.4 °C 9.3 °C 1025.0 hPa SSE 12.2 km/h 20.9 km/h 63% 0.0 mm 435.00 W/m2
15:44 16.2 °C 9.2 °C 1025.0 hPa SE 11.1 km/h 20.9 km/h 63% 0.0 mm 332.00 W/m2
15:49 16.3 °C 9.5 °C 1024.8 hPa SE 7.2 km/h 18.3 km/h 64% 0.0 mm 347.00 W/m2
15:54 16.1 °C 9.1 °C 1024.8 hPa SE 9.7 km/h 20.9 km/h 63% 0.0 mm 153.00 W/m2
15:59 16.1 °C 9.5 °C 1024.7 hPa SE 13.4 km/h 20.9 km/h 65% 0.0 mm 309.00 W/m2
16:04 16.1 °C 9.3 °C 1024.7 hPa SE 11.1 km/h 17.2 km/h 64% 0.0 mm 320.00 W/m2
16:09 16.2 °C 9.4 °C 1024.6 hPa SE 6.1 km/h 18.3 km/h 64% 0.0 mm 185.00 W/m2
16:14 16.3 °C 9.3 °C 1024.4 hPa SSE 9.7 km/h 18.3 km/h 63% 0.0 mm 315.00 W/m2
16:19 16.5 °C 9.4 °C 1024.5 hPa SSE 9.7 km/h 15.8 km/h 63% 0.0 mm 253.00 W/m2
16:24 16.4 °C 9.3 °C 1024.4 hPa SE 8.7 km/h 18.3 km/h 63% 0.0 mm 341.00 W/m2
16:29 16.3 °C 9.5 °C 1024.4 hPa SSE 7.2 km/h 18.3 km/h 64% 0.0 mm 334.00 W/m2
16:34 16.0 °C 9.4 °C 1024.4 hPa SSE 11.1 km/h 20.9 km/h 65% 0.0 mm 323.00 W/m2
16:39 16.1 °C 9.5 °C 1024.3 hPa SSE 7.2 km/h 20.9 km/h 65% 0.0 mm 311.00 W/m2
16:44 16.6 °C 9.8 °C 1024.2 hPa SSE 7.2 km/h 17.2 km/h 64% 0.0 mm 299.00 W/m2
16:49 16.7 °C 9.6 °C 1024.1 hPa SE 7.2 km/h 15.8 km/h 63% 0.0 mm 289.00 W/m2
16:54 17.1 °C 9.8 °C 1024.2 hPa SSE 11.1 km/h 15.8 km/h 62% 0.0 mm 279.00 W/m2
16:59 16.6 °C 9.3 °C 1024.2 hPa SE 7.2 km/h 15.8 km/h 62% 0.0 mm 266.00 W/m2
17:04 16.3 °C 9.0 °C 1024.2 hPa SE 12.2 km/h 15.8 km/h 62% 0.0 mm 254.00 W/m2
17:09 16.6 °C 9.6 °C 1024.1 hPa SE 11.1 km/h 15.8 km/h 63% 0.0 mm 242.00 W/m2
17:14 16.8 °C 9.5 °C 1024.0 hPa SE 9.7 km/h 17.2 km/h 62% 0.0 mm 232.00 W/m2
17:19 17.0 °C 9.4 °C 1023.9 hPa SSE 5.0 km/h 17.2 km/h 61% 0.0 mm 219.00 W/m2
17:24 17.4 °C 9.6 °C 1024.0 hPa SE 8.7 km/h 14.8 km/h 60% 0.0 mm 210.00 W/m2
17:29 17.0 °C 9.2 °C 1023.8 hPa SE 5.0 km/h 13.4 km/h 60% 0.0 mm 197.00 W/m2
17:34 17.3 °C 9.4 °C 1023.9 hPa SE 5.0 km/h 13.4 km/h 60% 0.0 mm 184.00 W/m2
17:39 17.4 °C 9.8 °C 1024.1 hPa SSE 5.0 km/h 12.2 km/h 61% 0.0 mm 172.00 W/m2
17:44 17.0 °C 9.2 °C 1023.8 hPa SSE 11.1 km/h 12.2 km/h 60% 0.0 mm 161.00 W/m2
17:49 16.9 °C 9.6 °C 1023.9 hPa SE 7.2 km/h 12.2 km/h 62% 0.0 mm 151.00 W/m2
17:54 16.8 °C 9.5 °C 1023.9 hPa SE 7.2 km/h 12.2 km/h 62% 0.0 mm 80.00 W/m2
17:59 15.7 °C 9.2 °C 1023.8 hPa SE 5.0 km/h 12.2 km/h 65% 0.0 mm 86.00 W/m2
18:04 15.4 °C 9.1 °C 1023.9 hPa SSE 5.0 km/h 13.4 km/h 66% 0.0 mm 70.00 W/m2
18:09 15.2 °C 9.3 °C 1023.6 hPa South 2.6 km/h 13.4 km/h 68% 0.0 mm 67.00 W/m2
18:14 15.0 °C 9.6 °C 1023.5 hPa SSE 7.2 km/h 11.1 km/h 70% 0.0 mm 66.00 W/m2
18:19 14.8 °C 10.0 °C 1023.5 hPa SE 3.5 km/h 12.2 km/h 73% 0.0 mm 43.00 W/m2
18:24 14.6 °C 10.0 °C 1023.5 hPa SE 2.6 km/h 12.2 km/h 74% 0.0 mm 48.00 W/m2
18:29 14.8 °C 10.6 °C 1023.5 hPa South 5.0 km/h 9.7 km/h 76% 0.0 mm 40.00 W/m2
18:34 14.6 °C 10.6 °C 1023.4 hPa South 3.5 km/h 8.7 km/h 77% 0.0 mm 39.00 W/m2
18:39 14.6 °C 11.0 °C 1023.2 hPa SSW 6.1 km/h 9.7 km/h 79% 0.0 mm 37.00 W/m2
18:44 14.6 °C 11.2 °C 1023.5 hPa SSW 7.2 km/h 11.1 km/h 80% 0.0 mm 34.00 W/m2
18:49 14.8 °C 11.4 °C 1023.2 hPa South 1.1 km/h 11.1 km/h 80% 0.0 mm 32.00 W/m2
18:54 14.6 °C 11.2 °C 1023.3 hPa South 5.0 km/h 9.7 km/h 80% 0.0 mm 25.00 W/m2
Northern Hawkes Bay. New Zealand Historic Data
Compliments of Weather Underground - 2 mb